Time;durP1;ratioP1;P1;durP2;ratioP2;P2;SDS_P1;SDS_P2;PMS_P1;PMS_P2;Temp;Humidity;BMP_temperature;BMP_pressure;BME280_temperature;BME280_humidity;BME280_pressure;Samples;Min_cycle;Max_cycle;Signal;HPM_P1;HPM_P2
2023/03/22 00:02:16;;;;;;;0.20;0.20;;;;;;;10.03;85.74;100172.31;5073517;28;20028;-65
2023/03/22 00:04:47;;;;;;;0.25;0.25;;;;;;;10.05;85.93;100178.31;5072389;28;20353;-64
2023/03/22 00:07:19;;;;;;;0.20;0.20;;;;;;;10.08;85.47;100174.81;5072369;28;20433;-64
2023/03/22 00:09:49;;;;;;;0.30;0.30;;;;;;;10.01;85.99;100169.88;5072227;28;20059;-66
2023/03/22 00:12:18;;;;;;;0.20;0.20;;;;;;;9.98;86.20;100167.84;5072126;28;20025;-65
2023/03/22 00:14:48;;;;;;;0.30;0.30;;;;;;;9.91;85.91;100167.66;5072249;28;20033;-66
2023/03/22 00:17:18;;;;;;;0.20;0.20;;;;;;;9.94;86.50;100167.72;5072184;28;20202;-65
2023/03/22 00:19:45;;;;;;;0.30;0.30;;;;;;;9.86;86.43;100168.72;5072928;28;20045;-64
2023/03/22 00:22:15;;;;;;;0.20;0.20;;;;;;;9.92;86.64;100174.84;5072463;28;20352;-65
2023/03/22 00:24:40;;;;;;;0.20;0.20;;;;;;;10.03;85.14;100170.34;5072332;28;20386;-64
2023/03/22 00:27:11;;;;;;;0.20;0.20;;;;;;;9.93;84.18;100180.03;5055558;28;20025;-65
2023/03/22 00:29:39;;;;;;;0.20;0.20;;;;;;;9.78;84.83;100171.69;5072379;28;20083;-63
2023/03/22 00:32:10;;;;;;;0.20;0.20;;;;;;;9.59;85.52;100167.66;5072528;28;20059;-64
2023/03/22 00:34:39;;;;;;;0.20;0.20;;;;;;;9.42;87.79;100159.63;5072122;28;20032;-64
2023/03/22 00:37:04;;;;;;;0.20;0.20;;;;;;;9.37;88.99;100152.34;5073449;28;20036;-65
2023/03/22 00:39:34;;;;;;;0.20;0.20;;;;;;;9.36;89.99;100147.97;5076119;28;20371;-65
2023/03/22 00:42:00;;;;;;;0.30;0.30;;;;;;;9.39;91.01;100155.59;5075527;28;20033;-64
2023/03/22 00:44:28;;;;;;;0.20;0.20;;;;;;;9.42;90.33;100154.88;5075511;28;20039;-64
2023/03/22 00:46:54;;;;;;;0.20;0.20;;;;;;;9.48;90.31;100141.56;5075429;28;20036;-65
2023/03/22 00:49:26;;;;;;;0.20;0.20;;;;;;;9.44;90.35;100148.97;5075971;28;20383;-66
2023/03/22 00:51:54;;;;;;;0.20;0.20;;;;;;;9.42;91.56;100142.97;5075277;28;20039;-64
2023/03/22 00:54:24;;;;;;;0.30;0.30;;;;;;;9.41;91.81;100141.34;5075289;28;20033;-65
2023/03/22 00:56:52;;;;;;;0.30;0.30;;;;;;;9.43;91.36;100134.28;5075536;28;20410;-66
2023/03/22 00:59:20;;;;;;;0.20;0.20;;;;;;;9.53;91.19;100138.50;5077196;28;20029;-65
2023/03/22 01:01:45;;;;;;;0.30;0.30;;;;;;;9.49;90.86;100131.25;5078438;28;20035;-64
2023/03/22 01:04:16;;;;;;;0.20;0.20;;;;;;;9.36;91.43;100128.53;5079029;28;20028;-66
2023/03/22 01:07:00;;;;;;;0.30;0.30;;;;;;;9.47;92.44;100128.00;5078432;28;20034;-64
2023/03/22 01:09:32;;;;;;;0.30;0.30;;;;;;;9.39;92.50;100127.81;5096899;28;20027;-65
2023/03/22 01:12:01;;;;;;;0.20;0.20;;;;;;;9.39;92.86;100124.25;5096646;28;20024;-65
2023/03/22 01:14:28;;;;;;;0.20;0.20;;;;;;;9.45;92.80;100123.63;5097575;28;20032;-65
2023/03/22 01:16:56;;;;;;;0.20;0.20;;;;;;;9.45;92.85;100123.63;5078942;28;20036;-64
2023/03/22 01:19:27;;;;;;;0.20;0.20;;;;;;;9.49;92.51;100120.16;5078725;28;20035;-65
2023/03/22 01:21:56;;;;;;;0.20;0.20;;;;;;;9.56;92.63;100112.78;5078378;28;20032;-65
2023/03/22 01:24:22;;;;;;;0.20;0.20;;;;;;;9.48;92.00;100107.41;5078083;28;20066;-65
2023/03/22 01:26:48;;;;;;;0.30;0.30;;;;;;;9.38;92.95;100101.22;5078165;28;20020;-65
2023/03/22 01:29:17;;;;;;;0.30;0.30;;;;;;;9.36;92.14;100100.75;5077707;28;20398;-64
2023/03/22 01:31:43;;;;;;;0.25;0.25;;;;;;;9.43;91.78;100100.16;5094759;28;20032;-64
2023/03/22 01:34:12;;;;;;;0.20;0.20;;;;;;;9.48;91.97;100101.84;5077865;28;20085;-64
2023/03/22 01:36:40;;;;;;;0.30;0.30;;;;;;;9.41;92.16;100103.28;5096028;28;20038;-65
2023/03/22 01:39:10;;;;;;;0.30;0.30;;;;;;;9.34;92.76;100102.28;5078320;28;20500;-65
2023/03/22 01:41:47;;;;;;;0.20;0.20;;;;;;;9.33;93.76;100109.81;5078316;28;20032;-65
2023/03/22 01:44:19;;;;;;;0.20;0.20;;;;;;;9.33;93.71;100107.03;5078245;28;20043;-65
2023/03/22 01:46:46;;;;;;;0.20;0.20;;;;;;;9.39;93.88;100100.06;5077872;28;20101;-65
2023/03/22 01:49:22;;;;;;;0.20;0.20;;;;;;;9.42;93.74;100092.97;5077063;28;20082;-65
2023/03/22 01:51:54;;;;;;;0.20;0.20;;;;;;;9.41;94.33;100092.16;5077829;28;20032;-64
2023/03/22 01:54:31;;;;;;;0.30;0.30;;;;;;;9.33;95.08;100087.59;5078166;28;20439;-65
2023/03/22 01:57:00;;;;;;;0.20;0.20;;;;;;;9.29;95.52;100085.91;5094799;28;20070;-65
2023/03/22 01:59:26;;;;;;;0.20;0.20;;;;;;;9.34;95.26;100094.78;5095497;28;20056;-65
2023/03/22 02:01:52;;;;;;;0.20;0.20;;;;;;;9.28;94.90;100098.16;5078112;28;20036;-66
2023/03/22 02:04:22;;;;;;;0.20;0.20;;;;;;;9.30;94.92;100099.41;5077448;28;20032;-64
2023/03/22 02:06:56;;;;;;;0.22;0.22;;;;;;;9.42;93.78;100096.56;5077260;28;20123;-65
2023/03/22 02:09:22;;;;;;;0.30;0.30;;;;;;;9.39;93.98;100093.69;5078113;28;20050;-68
2023/03/22 02:12:09;;;;;;;0.25;0.25;;;;;;;9.32;94.11;100088.78;5077093;28;20526;-66
2023/03/22 02:14:50;;;;;;;0.20;0.20;;;;;;;9.34;94.27;100092.00;5094807;28;20073;-62
2023/03/22 02:17:41;;;;;;;0.30;0.30;;;;;;;9.13;94.37;100031.16;5094598;28;20114;-65
2023/03/22 02:20:28;;;;;;;0.30;0.30;;;;;;;9.35;94.13;100093.59;5094727;28;20035;-65
2023/03/22 02:23:25;;;;;;;0.30;0.30;;;;;;;9.31;95.06;100091.88;5094329;28;20024;-65
2023/03/22 02:26:18;;;;;;;0.30;0.30;;;;;;;9.17;95.96;100084.00;5070848;28;20039;-65
2023/03/22 02:28:55;;;;;;;0.20;0.20;;;;;;;9.16;97.78;100087.91;5078850;28;20031;-69
2023/03/22 02:31:51;;;;;;;0.20;0.20;;;;;;;9.17;98.33;100082.03;5079608;28;20459;-65
2023/03/22 02:34:19;;;;;;;0.20;0.20;;;;;;;8.96;98.71;100052.91;5078249;28;20501;-67
2023/03/22 02:37:03;;;;;;;0.22;0.22;;;;;;;9.12;98.42;100087.03;5077247;28;20032;-65
2023/03/22 02:39:42;;;;;;;0.30;0.30;;;;;;;9.16;98.13;100085.13;5076340;28;20028;-65
2023/03/22 02:42:37;;;;;;;0.20;0.20;;;;;;;9.03;97.53;100075.28;5093385;28;20130;-64
2023/03/22 02:45:18;;;;;;;0.30;0.30;;;;;;;9.03;97.15;100086.38;5069694;28;20032;-65
2023/03/22 02:48:01;;;;;;;0.30;0.30;;;;;;;9.03;97.36;100086.38;5094826;28;20470;-64
2023/03/22 02:50:52;;;;;;;0.30;0.30;;;;;;;9.00;97.34;100087.09;5076667;28;20462;-64
2023/03/22 02:53:19;;;;;;;0.30;0.30;;;;;;;9.01;96.98;100094.28;5075565;28;20040;-65
2023/03/22 02:55:54;;;;;;;0.30;0.30;;;;;;;8.95;97.83;100101.22;5093180;28;20034;-64
2023/03/22 02:58:25;;;;;;;0.30;0.30;;;;;;;8.91;98.86;100101.13;5092389;28;20478;-65
2023/03/22 03:00:59;;;;;;;0.30;0.30;;;;;;;8.85;99.84;100103.34;5057785;28;20388;-65
2023/03/22 03:03:29;;;;;;;;;;;;;;;8.86;100.00;100104.16;5053541;28;20486;-65
2023/03/22 03:06:00;;;;;;;0.30;0.30;;;;;;;8.86;100.00;100110.50;5069646;28;20373;-65
2023/03/22 03:08:26;;;;;;;0.30;0.30;;;;;;;8.87;100.00;100108.53;5052278;28;20059;-64
2023/03/22 03:10:56;;;;;;;0.20;0.20;;;;;;;8.93;100.00;100110.69;5052993;28;20131;-63
2023/03/22 03:13:21;;;;;;;0.28;0.28;;;;;;;9.05;99.90;100111.81;5054017;28;20060;-63
2023/03/22 03:15:57;;;;;;;0.20;0.20;;;;;;;8.94;100.00;100111.50;5052717;28;20033;-62
2023/03/22 03:18:44;;;;;;;0.30;0.30;;;;;;;8.69;100.00;100080.31;5052718;28;20035;-63
2023/03/22 03:21:34;;;;;;;0.30;0.30;;;;;;;8.80;100.00;100105.56;5052608;28;20029;-64
2023/03/22 03:24:26;;;;;;;0.20;0.20;;;;;;;8.88;100.00;100110.94;5052522;28;20031;-63
2023/03/22 03:27:20;;;;;;;0.30;0.30;;;;;;;8.90;99.19;100111.44;5053012;28;20452;-64
2023/03/22 03:29:58;;;;;;;;;;;;;;;8.89;98.83;100114.53;5052885;28;20025;-64
2023/03/22 03:32:28;;;;;;;0.30;0.30;;;;;;;8.83;99.61;100110.41;5069136;28;19924;-64
2023/03/22 03:35:04;;;;;;;0.20;0.20;;;;;;;8.87;98.90;100112.13;5052445;28;20059;-65
2023/03/22 03:37:41;;;;;;;0.20;0.20;;;;;;;8.80;99.35;100117.47;5053948;28;20025;-65
2023/03/22 03:40:12;;;;;;;0.30;0.30;;;;;;;8.83;99.45;100115.94;5052939;28;20115;-64
2023/03/22 03:42:47;;;;;;;0.30;0.30;;;;;;;8.92;98.40;100119.38;5053612;28;20021;-64
2023/03/22 03:45:21;;;;;;;0.20;0.20;;;;;;;8.96;98.51;100125.84;5053070;28;20033;-64
2023/03/22 03:47:55;;;;;;;0.25;0.25;;;;;;;9.01;98.15;100128.38;5052265;28;20048;-64
2023/03/22 03:50:25;;;;;;;0.30;0.30;;;;;;;8.92;98.12;100136.03;5054357;28;20080;-64
2023/03/22 03:52:55;;;;;;;0.30;0.30;;;;;;;8.80;98.56;100134.13;5052549;28;20514;-64
2023/03/22 03:55:25;;;;;;;0.20;0.20;;;;;;;8.83;99.29;100138.94;5053074;28;20412;-63
2023/03/22 03:57:53;;;;;;;0.20;0.20;;;;;;;8.77;99.08;100137.59;5052523;28;20040;-64
2023/03/22 04:00:21;;;;;;;0.20;0.20;;;;;;;8.76;100.00;100138.75;5051972;28;20076;-64
2023/03/22 04:02:52;;;;;;;0.22;0.22;;;;;;;8.70;100.00;100136.59;5052669;28;20395;-63
2023/03/22 04:05:22;;;;;;;0.20;0.20;;;;;;;8.71;100.00;100146.50;5052069;28;20032;-65
2023/03/22 04:07:50;;;;;;;0.20;0.20;;;;;;;8.73;100.00;100145.00;5052144;28;20049;-63
2023/03/22 04:10:21;;;;;;;0.20;0.20;;;;;;;8.72;99.51;100140.59;5052369;28;20508;-65
2023/03/22 04:12:46;;;;;;;0.20;0.20;;;;;;;8.63;98.71;100146.31;5054262;28;20120;-64
2023/03/22 04:15:15;;;;;;;0.20;0.20;;;;;;;8.65;99.64;100143.97;5058560;28;20065;-64
2023/03/22 04:17:46;;;;;;;0.20;0.20;;;;;;;8.80;98.23;100150.75;5057637;28;20025;-64
2023/03/22 04:20:12;;;;;;;0.20;0.20;;;;;;;8.76;96.84;100149.84;5056838;28;20032;-64
2023/03/22 04:22:42;;;;;;;0.20;0.20;;;;;;;8.75;97.13;100139.91;5056527;28;20032;-65
2023/03/22 04:25:16;;;;;;;0.30;0.30;;;;;;;8.71;97.23;100139.00;5055837;28;20108;-66
2023/03/22 04:27:50;;;;;;;0.30;0.30;;;;;;;8.65;98.26;100132.09;5057351;28;20108;-64
2023/03/22 04:30:21;;;;;;;0.20;0.20;;;;;;;8.61;98.58;100136.72;5057353;28;20039;-66
2023/03/22 04:32:48;;;;;;;0.20;0.20;;;;;;;8.56;98.41;100134.19;5056872;28;20078;-63
2023/03/22 04:35:14;;;;;;;0.20;0.20;;;;;;;8.61;98.16;100136.72;5058126;28;20033;-64
2023/03/22 04:37:44;;;;;;;0.30;0.30;;;;;;;8.57;97.68;100136.59;5055883;28;20021;-64
2023/03/22 04:40:15;;;;;;;0.30;0.30;;;;;;;8.61;96.67;100139.47;5055529;28;20036;-65
2023/03/22 04:42:44;;;;;;;0.30;0.30;;;;;;;8.71;95.47;100147.31;5055443;28;20037;-64
2023/03/22 04:45:15;;;;;;;0.20;0.20;;;;;;;8.77;93.63;100145.09;5055898;28;20111;-65
2023/03/22 04:47:44;;;;;;;0.30;0.30;;;;;;;8.74;94.42;100146.63;5055689;28;20120;-64
2023/03/22 04:50:12;;;;;;;0.30;0.30;;;;;;;8.65;95.60;100149.53;5055279;28;20116;-64
2023/03/22 04:52:40;;;;;;;0.20;0.20;;;;;;;8.61;96.33;100151.38;5055284;28;20067;-64
2023/03/22 04:55:11;;;;;;;0.20;0.20;;;;;;;8.63;96.89;100148.28;5055288;28;20032;-64
2023/03/22 04:57:39;;;;;;;0.30;0.30;;;;;;;8.69;95.86;100152.41;5055496;28;20482;-64
2023/03/22 05:00:07;;;;;;;0.30;0.30;;;;;;;8.69;95.80;100165.47;5054901;28;20049;-64
2023/03/22 05:02:39;;;;;;;0.20;0.20;;;;;;;8.65;95.46;100155.06;5055107;28;20455;-64
2023/03/22 05:05:05;;;;;;;0.20;0.20;;;;;;;8.73;95.48;100163.59;5039358;28;20460;-64
2023/03/22 05:07:33;;;;;;;0.20;0.20;;;;;;;8.81;94.80;100157.91;5055227;28;20387;-64
2023/03/22 05:10:04;;;;;;;0.20;0.20;;;;;;;8.76;94.75;100163.72;5055969;28;20483;-63
2023/03/22 05:12:35;;;;;;;0.20;0.20;;;;;;;8.75;95.54;100159.34;5055002;28;20029;-63
2023/03/22 05:15:03;;;;;;;0.30;0.30;;;;;;;8.78;96.20;100157.81;5055423;28;20033;-64
2023/03/22 05:17:31;;;;;;;0.20;0.20;;;;;;;8.81;94.70;100154.34;5054817;28;20566;-63
2023/03/22 05:20:07;;;;;;;0.30;0.30;;;;;;;9.11;92.86;100150.06;5054886;28;20037;-63
2023/03/22 05:22:33;;;;;;;0.20;0.20;;;;;;;9.22;91.36;100149.56;5056216;28;20028;-64
2023/03/22 05:25:03;;;;;;;0.30;0.30;;;;;;;9.49;89.70;100156.25;5055194;28;20471;-65
2023/03/22 05:27:33;;;;;;;0.20;0.20;;;;;;;9.83;88.75;100152.75;5057647;28;20029;-68
2023/03/22 05:30:01;;;;;;;0.20;0.20;;;;;;;10.31;87.98;100161.09;5056327;28;20036;-64
2023/03/22 05:32:32;;;;;;;0.20;0.20;;;;;;;10.61;85.62;100170.56;5054550;28;20091;-63
2023/03/22 05:35:03;;;;;;;0.20;0.20;;;;;;;10.64;84.31;100169.00;5055041;28;20029;-64
2023/03/22 05:37:35;;;;;;;0.20;0.20;;;;;;;11.19;82.26;100167.00;5054755;28;20033;-64
2023/03/22 05:40:04;;;;;;;0.20;0.20;;;;;;;11.97;78.19;100173.22;5055671;28;20029;-65
2023/03/22 05:42:31;;;;;;;0.20;0.20;;;;;;;12.50;74.88;100167.69;5054674;28;20040;-64
2023/03/22 05:45:00;;;;;;;0.20;0.20;;;;;;;13.05;70.96;100163.28;5054178;28;20077;-64
2023/03/22 05:47:31;;;;;;;0.20;0.20;;;;;;;13.58;68.54;100168.72;5054582;28;20071;-65
2023/03/22 05:49:56;;;;;;;0.20;0.20;;;;;;;13.92;64.99;100160.22;5054306;28;20060;-66
2023/03/22 05:52:25;;;;;;;0.20;0.20;;;;;;;13.93;64.30;100164.63;5054431;28;20060;-64
2023/03/22 05:54:53;;;;;;;0.20;0.20;;;;;;;14.43;61.66;100170.59;5054138;28;20119;-65
2023/03/22 05:57:18;;;;;;;0.20;0.20;;;;;;;14.77;62.00;100162.06;5054470;28;20040;-66
2023/03/22 05:59:52;;;;;;;0.20;0.20;;;;;;;15.01;60.40;100160.56;5054581;28;20052;-65
2023/03/22 06:02:20;;;;;;;0.20;0.20;;;;;;;15.29;58.93;100165.50;5053980;28;20427;-64
2023/03/22 06:04:54;;;;;;;0.20;0.20;;;;;;;15.60;57.93;100180.78;5055555;28;20029;-65
2023/03/22 06:07:22;;;;;;;0.20;0.20;;;;;;;15.78;58.07;100175.28;5068923;28;20037;-63
2023/03/22 06:09:55;;;;;;;0.20;0.20;;;;;;;16.12;57.21;100173.69;5054987;28;20029;-65
2023/03/22 06:12:23;;;;;;;0.20;0.20;;;;;;;16.52;55.79;100176.47;5054015;28;20119;-64
2023/03/22 06:14:51;;;;;;;0.20;0.20;;;;;;;16.74;54.01;100175.25;5053880;28;20098;-65
2023/03/22 06:17:22;;;;;;;0.20;0.20;;;;;;;16.80;52.37;100182.06;5053846;28;20194;-65
2023/03/22 06:19:53;;;;;;;0.20;0.20;;;;;;;16.88;54.33;100180.03;5053491;28;20060;-65
2023/03/22 06:22:19;;;;;;;0.20;0.20;;;;;;;16.93;54.20;100188.03;5053716;28;20029;-64
2023/03/22 06:24:47;;;;;;;0.20;0.20;;;;;;;17.01;53.49;100181.22;5053305;28;20051;-65
2023/03/22 06:27:27;;;;;;;0.20;0.20;;;;;;;17.56;52.64;100183.34;5053507;28;20514;-64
2023/03/22 06:29:58;;;;;;;0.20;0.20;;;;;;;17.75;50.54;100180.06;5053445;28;20028;-65
2023/03/22 06:32:26;;;;;;;0.20;0.20;;;;;;;18.14;49.26;100193.06;5053781;28;20106;-65
2023/03/22 06:34:59;;;;;;;0.20;0.20;;;;;;;18.52;48.69;100182.66;5052836;28;20068;-65
2023/03/22 06:37:27;;;;;;;0.20;0.20;;;;;;;18.87;47.75;100188.41;5052993;28;20476;-65
2023/03/22 06:39:55;;;;;;;0.20;0.20;;;;;;;18.88;47.01;100190.78;5053362;28;20468;-64
2023/03/22 06:42:21;;;;;;;0.20;0.20;;;;;;;19.23;44.91;100200.03;5053262;28;20179;-65
2023/03/22 06:44:49;;;;;;;0.20;0.20;;;;;;;19.73;44.20;100193.78;5052901;28;20456;-66
2023/03/22 06:47:18;;;;;;;0.20;0.20;;;;;;;20.03;43.33;100202.22;5053446;28;20366;-65
2023/03/22 06:49:49;;;;;;;0.20;0.20;;;;;;;20.37;42.96;100206.91;5054627;28;20164;-65
2023/03/22 06:52:17;;;;;;;0.20;0.20;;;;;;;20.39;41.35;100185.44;5052983;28;20547;-65
2023/03/22 06:54:47;;;;;;;0.20;0.20;;;;;;;20.59;40.82;100213.03;5052903;28;20116;-65
2023/03/22 06:57:16;;;;;;;0.20;0.20;;;;;;;20.88;39.89;100202.78;5052520;28;20029;-64
2023/03/22 06:59:45;;;;;;;0.20;0.20;;;;;;;21.37;38.84;100202.25;5052797;28;20546;-65
2023/03/22 07:02:13;;;;;;;0.20;0.20;;;;;;;21.42;39.13;100202.53;5052873;28;20357;-65
2023/03/22 07:04:40;;;;;;;0.20;0.20;;;;;;;21.61;38.57;100208.63;5052368;28;20060;-65
2023/03/22 07:07:06;;;;;;;0.20;0.20;;;;;;;21.86;38.38;100206.03;5052789;28;20426;-64
2023/03/22 07:09:37;;;;;;;0.20;0.20;;;;;;;22.19;37.56;100208.91;5052616;28;20064;-64
2023/03/22 07:12:09;;;;;;;0.20;0.20;;;;;;;22.41;37.19;100207.16;5053765;28;20021;-64
2023/03/22 07:14:37;;;;;;;0.15;0.15;;;;;;;22.63;36.13;100201.72;5052126;28;20033;-65
2023/03/22 07:17:08;;;;;;;0.20;0.20;;;;;;;22.21;35.79;100201.59;5051969;28;20021;-66
2023/03/22 07:19:41;;;;;;;0.20;0.20;;;;;;;22.84;35.63;100211.69;5052047;28;20212;-65
2023/03/22 07:22:07;;;;;;;;;;;;;;;22.98;33.44;100217.03;5053042;28;20044;-66
2023/03/22 07:24:35;;;;;;;0.20;0.20;;;;;;;22.80;34.70;100219.53;5068766;28;19908;-64
2023/03/22 07:27:04;;;;;;;0.20;0.20;;;;;;;22.94;34.63;100210.66;5052068;28;20056;-63
2023/03/22 07:29:33;;;;;;;0.10;0.10;;;;;;;23.65;34.17;100224.06;5051872;28;20064;-65
2023/03/22 07:31:58;;;;;;;0.20;0.20;;;;;;;23.10;34.81;100228.88;5052054;28;20039;-64
2023/03/22 07:34:26;;;;;;;0.20;0.20;;;;;;;23.45;33.75;100227.88;5052069;28;20041;-65
2023/03/22 07:36:55;;;;;;;0.20;0.20;;;;;;;23.73;33.70;100231.13;5052163;28;20039;-64
2023/03/22 07:39:23;;;;;;;0.20;0.20;;;;;;;23.40;34.32;100225.59;5052760;28;20379;-65
2023/03/22 07:41:52;;;;;;;0.13;0.13;;;;;;;23.44;34.67;100220.59;5052461;28;20057;-65
2023/03/22 07:44:21;;;;;;;0.10;0.10;;;;;;;23.76;34.71;100224.56;5052509;28;20035;-64
2023/03/22 07:46:47;;;;;;;0.20;0.20;;;;;;;22.65;35.10;100226.81;5052558;28;20115;-64
2023/03/22 07:49:15;;;;;;;0.20;0.20;;;;;;;23.06;33.94;100228.16;5056114;28;20060;-64
2023/03/22 07:51:42;;;;;;;0.10;0.10;;;;;;;22.92;34.91;100223.69;5056448;28;20029;-65
2023/03/22 07:54:12;;;;;;;0.20;0.20;;;;;;;23.58;33.28;100233.56;5056491;28;20032;-65
2023/03/22 07:56:41;;;;;;;0.20;0.20;;;;;;;23.29;33.52;100229.97;5055779;28;20040;-64
2023/03/22 07:59:07;;;;;;;0.20;0.20;;;;;;;23.58;34.02;100229.94;5056501;28;20029;-64
2023/03/22 08:01:35;;;;;;;0.10;0.10;;;;;;;23.98;33.00;100233.22;5079933;28;20059;-64
2023/03/22 08:04:01;;;;;;;0.20;0.20;;;;;;;24.29;31.63;100233.44;5098008;28;20077;-65
2023/03/22 08:06:26;;;;;;;0.20;0.20;;;;;;;24.14;32.67;100246.50;5079213;28;20028;-65
2023/03/22 08:08:55;;;;;;;0.10;0.10;;;;;;;24.07;31.99;100232.50;5079367;28;20032;-64
2023/03/22 08:11:20;;;;;;;0.20;0.20;;;;;;;23.82;32.69;100233.31;5079245;28;20028;-63
2023/03/22 08:13:49;;;;;;;0.10;0.10;;;;;;;23.53;32.49;100234.91;5079177;28;20040;-64
2023/03/22 08:16:22;;;;;;;0.20;0.20;;;;;;;22.48;33.34;100232.50;5078424;28;20036;-64
2023/03/22 08:18:48;;;;;;;0.10;0.10;;;;;;;21.94;34.92;100244.28;5079118;28;20059;-63
2023/03/22 08:21:16;;;;;;;0.17;0.17;;;;;;;22.77;34.11;100240.25;5079159;28;20086;-63
2023/03/22 08:23:45;;;;;;;0.20;0.20;;;;;;;21.94;34.79;100232.97;5079235;28;20470;-64
2023/03/22 08:26:13;;;;;;;0.20;0.20;;;;;;;22.48;34.40;100238.16;5078879;28;20062;-65
2023/03/22 08:28:38;;;;;;;0.20;0.20;;;;;;;23.10;33.59;100235.34;5078824;28;20043;-64
2023/03/22 08:31:12;;;;;;;0.20;0.20;;;;;;;23.41;33.09;100243.41;5078749;28;20036;-65
2023/03/22 08:33:43;;;;;;;0.20;0.20;;;;;;;23.03;32.61;100237.59;5079067;28;20038;-64
2023/03/22 08:36:15;;;;;;;0.20;0.20;;;;;;;23.78;32.04;100239.09;5079560;28;20047;-66
2023/03/22 08:38:45;;;;;;;0.20;0.20;;;;;;;24.50;31.17;100231.94;5079361;28;20028;-64
2023/03/22 08:41:12;;;;;;;0.20;0.20;;;;;;;24.93;30.42;100245.50;5079544;28;20036;-65
2023/03/22 08:43:37;;;;;;;0.10;0.10;;;;;;;24.46;31.27;100236.97;5078922;28;20489;-65
2023/03/22 08:46:08;;;;;;;0.20;0.20;;;;;;;24.94;29.97;100232.06;5078776;28;20024;-65
2023/03/22 08:48:37;;;;;;;0.20;0.20;;;;;;;24.88;30.82;100233.91;5078796;28;20036;-65
2023/03/22 08:51:06;;;;;;;0.20;0.20;;;;;;;25.76;29.76;100223.38;5096001;28;20085;-65
2023/03/22 08:53:34;;;;;;;0.10;0.10;;;;;;;25.73;30.00;100230.00;5096073;28;20442;-64
2023/03/22 08:56:03;;;;;;;0.20;0.20;;;;;;;24.68;30.47;100219.97;5078339;28;20115;-64
2023/03/22 08:58:30;;;;;;;0.20;0.20;;;;;;;25.33;30.27;100222.94;5077996;28;20024;-66
2023/03/22 09:00:59;;;;;;;0.20;0.20;;;;;;;25.49;30.17;100227.63;5059200;28;20053;-65
2023/03/22 09:03:27;;;;;;;0.10;0.10;;;;;;;24.62;31.72;100221.81;5055535;28;20464;-64
2023/03/22 09:05:53;;;;;;;0.20;0.20;;;;;;;25.71;30.30;100232.50;5055305;28;20115;-63
2023/03/22 09:08:21;;;;;;;0.20;0.20;;;;;;;25.73;30.21;100218.59;5054722;28;20386;-65
2023/03/22 09:10:50;;;;;;;0.20;0.20;;;;;;;25.08;31.74;100226.69;5055029;28;20494;-64
2023/03/22 09:13:19;;;;;;;0.20;0.20;;;;;;;24.90;32.46;100215.13;5054738;28;20027;-64
2023/03/22 09:15:52;;;;;;;0.17;0.17;;;;;;;23.86;32.38;100214.88;5054645;28;20119;-64
2023/03/22 09:18:23;;;;;;;0.20;0.20;;;;;;;24.33;31.62;100210.56;5054872;28;20361;-65
2023/03/22 09:20:48;;;;;;;0.20;0.20;;;;;;;23.84;32.33;100208.06;5054859;28;20029;-65
2023/03/22 09:23:16;;;;;;;0.20;0.20;;;;;;;24.16;31.69;100207.06;5054837;28;20418;-64
2023/03/22 09:25:43;;;;;;;0.10;0.10;;;;;;;23.73;31.61;100208.41;5054393;28;20123;-63
2023/03/22 09:28:09;;;;;;;0.10;0.10;;;;;;;24.18;31.01;100216.72;5055249;28;20372;-63
2023/03/22 09:30:35;;;;;;;0.20;0.20;;;;;;;23.80;31.10;100213.84;5038412;28;20098;-64
2023/03/22 09:33:05;;;;;;;0.10;0.10;;;;;;;23.87;31.06;100210.03;5054330;28;20052;-64
2023/03/22 09:35:33;;;;;;;0.20;0.20;;;;;;;23.42;31.69;100210.94;5054366;28;20036;-63
2023/03/22 09:38:02;;;;;;;0.20;0.20;;;;;;;23.37;33.04;100203.75;5054411;28;20099;-63
2023/03/22 09:40:30;;;;;;;0.10;0.10;;;;;;;23.50;33.88;100201.75;5054191;28;20028;-63
2023/03/22 09:43:03;;;;;;;0.17;0.17;;;;;;;23.69;32.61;100202.03;5054450;28;20440;-63
2023/03/22 09:45:45;;;;;;;0.10;0.10;;;;;;;24.15;32.61;100203.41;5054604;28;20430;-63
2023/03/22 09:48:17;;;;;;;0.20;0.20;;;;;;;24.77;31.54;100205.84;5054118;28;20025;-63
2023/03/22 09:50:49;;;;;;;0.20;0.20;;;;;;;25.10;31.53;100205.50;5054829;28;20099;-63
2023/03/22 09:53:17;;;;;;;0.10;0.10;;;;;;;25.35;31.40;100211.06;5053977;28;20029;-65
2023/03/22 09:56:08;;;;;;;0.10;0.10;;;;;;;24.50;32.63;100203.50;5053957;28;20537;-63
2023/03/22 09:58:55;;;;;;;0.20;0.20;;;;;;;25.16;31.45;100203.66;5045308;28;20041;-63
2023/03/22 10:01:30;;;;;;;0.10;0.10;;;;;;;24.68;31.63;100178.09;5053565;28;20045;-64
2023/03/22 10:04:14;;;;;;;0.20;0.20;;;;;;;25.01;31.45;100192.75;5053744;28;20025;-63
2023/03/22 10:06:52;;;;;;;0.10;0.10;;;;;;;24.54;31.80;100198.50;5053556;28;20036;-63
2023/03/22 10:09:24;;;;;;;0.10;0.10;;;;;;;24.56;32.00;100193.94;5053925;28;20366;-63
2023/03/22 10:12:03;;;;;;;0.10;0.10;;;;;;;24.14;32.01;100190.47;5054014;28;20425;-63
2023/03/22 10:14:41;;;;;;;0.10;0.10;;;;;;;23.98;32.21;100157.28;5053439;28;20106;-64
2023/03/22 10:17:14;;;;;;;0.10;0.10;;;;;;;24.24;32.48;100180.00;5054018;28;20037;-65
2023/03/22 10:19:54;;;;;;;0.20;0.20;;;;;;;24.25;32.14;100184.41;5053412;28;20032;-64
2023/03/22 10:22:28;;;;;;;0.20;0.20;;;;;;;24.12;32.39;100178.72;5053458;28;20029;-64
2023/03/22 10:24:58;;;;;;;0.20;0.20;;;;;;;24.64;31.06;100182.31;5054837;28;20361;-63
2023/03/22 10:27:27;;;;;;;0.10;0.10;;;;;;;23.80;33.43;100174.09;5053663;28;20475;-65
2023/03/22 10:30:07;;;;;;;0.10;0.10;;;;;;;23.44;34.51;100169.50;5053590;28;20486;-63
2023/03/22 10:32:40;;;;;;;0.10;0.10;;;;;;;23.88;34.31;100161.25;5053641;28;20033;-63
2023/03/22 10:35:12;;;;;;;0.10;0.10;;;;;;;24.63;34.10;100163.66;5053377;28;20217;-63
2023/03/22 10:37:44;;;;;;;0.20;0.20;;;;;;;24.58;34.37;100153.66;5053155;28;20028;-64
2023/03/22 10:40:26;;;;;;;0.17;0.17;;;;;;;24.56;34.73;100156.97;5053943;28;20467;-64
2023/03/22 10:43:11;;;;;;;0.17;0.17;;;;;;;24.49;35.09;100151.50;5052947;28;20033;-64
2023/03/22 10:45:37;;;;;;;0.10;0.10;;;;;;;23.74;35.73;100148.28;5054289;28;20472;-65
2023/03/22 10:48:31;;;;;;;0.10;0.10;;;;;;;23.50;36.96;100144.97;5053099;28;20120;-63
2023/03/22 10:50:58;;;;;;;0.15;0.15;;;;;;;23.82;35.30;100143.19;5052919;28;20031;-64
2023/03/22 10:53:39;;;;;;;0.20;0.20;;;;;;;24.56;35.15;100145.59;5053162;28;20029;-62
2023/03/22 10:56:18;;;;;;;0.10;0.10;;;;;;;24.26;35.30;100151.91;5052972;28;20025;-64
2023/03/22 10:58:45;;;;;;;0.20;0.20;;;;;;;23.92;35.94;100144.91;5053590;28;20028;-65
2023/03/22 11:01:13;;;;;;;0.20;0.20;;;;;;;23.69;36.66;100146.03;5052267;28;20060;-63
2023/03/22 11:03:42;;;;;;;0.20;0.20;;;;;;;23.74;36.61;100136.13;5053116;28;20482;-63
2023/03/22 11:06:28;;;;;;;0.10;0.10;;;;;;;24.07;35.83;100135.88;5052714;28;20048;-63
2023/03/22 11:08:59;;;;;;;0.10;0.10;;;;;;;24.42;35.24;100139.59;5052982;28;20163;-63
2023/03/22 11:11:25;;;;;;;0.10;0.10;;;;;;;23.87;36.11;100134.09;5053443;28;20475;-64
2023/03/22 11:14:12;;;;;;;0.10;0.10;;;;;;;24.10;36.36;100144.31;5052333;28;20029;-63
2023/03/22 11:17:16;;;;;;;0.20;0.20;;;;;;;23.47;37.12;100139.38;5052919;28;20040;-62
2023/03/22 11:19:57;;;;;;;0.20;0.20;;;;;;;23.36;36.86;100134.03;5043399;28;20051;-62
2023/03/22 11:22:39;;;;;;;0.20;0.20;;;;;;;23.30;36.69;100133.00;5052561;28;20028;-64
2023/03/22 11:25:25;;;;;;;0.20;0.20;;;;;;;23.45;37.12;100119.97;5052825;28;20079;-64
2023/03/22 11:28:08;;;;;;;0.10;0.10;;;;;;;23.44;37.18;100123.28;5053559;28;20040;-62
2023/03/22 11:30:35;;;;;;;0.20;0.20;;;;;;;23.53;36.28;100120.53;5052190;28;20032;-63
2023/03/22 11:33:06;;;;;;;0.20;0.20;;;;;;;23.25;37.09;100116.53;5052080;28;20060;-62
2023/03/22 11:35:38;;;;;;;0.20;0.20;;;;;;;22.62;38.28;100109.38;5052177;28;20025;-63
2023/03/22 11:38:21;;;;;;;0.20;0.20;;;;;;;22.97;38.04;100113.31;5052123;28;20052;-64
2023/03/22 11:40:52;;;;;;;0.20;0.20;;;;;;;23.36;37.31;100119.06;5052571;28;20041;-63
2023/03/22 11:43:36;;;;;;;0.15;0.15;;;;;;;23.12;37.94;100108.00;5052289;28;20021;-62
2023/03/22 11:46:03;;;;;;;0.10;0.10;;;;;;;22.87;38.39;100100.19;5052539;28;20027;-64
2023/03/22 11:48:31;;;;;;;0.20;0.20;;;;;;;22.34;38.66;100099.63;5052041;28;20029;-63
2023/03/22 11:51:32;;;;;;;0.15;0.15;;;;;;;22.60;38.61;100105.44;5052522;28;20075;-63